Time,TemperatureF,DewpointF,PressureIn,WindDirection,WindDirectionDegrees,WindSpeedMPH,WindSpeedGustMPH,Humidity,HourlyPrecipIn,Conditions,Clouds,dailyrainin,SoftwareType,DateUTC
2013-08-02 00:01:00,61.2,52.9,30.26,North,0,0.0,0.0,74,0.00,,,0.00,WUHU216HW,2013-08-02 07:01:00,
2013-08-02 00:06:00,61.4,53.4,30.25,North,0,0.0,0.0,75,0.00,,,0.00,WUHU216HW,2013-08-02 07:06:00,
2013-08-02 00:11:00,61.6,53.6,30.25,North,0,0.0,0.0,75,0.00,,,0.00,WUHU216HW,2013-08-02 07:11:00,
2013-08-02 00:16:00,61.6,53.6,30.25,North,0,0.0,0.0,75,0.00,,,0.00,WUHU216HW,2013-08-02 07:16:00,
2013-08-02 00:21:00,61.6,53.6,30.26,North,0,0.0,0.0,75,0.00,,,0.00,WUHU216HW,2013-08-02 07:21:00,
2013-08-02 00:26:00,61.6,53.6,30.26,North,0,0.0,0.0,75,0.00,,,0.00,WUHU216HW,2013-08-02 07:26:00,
2013-08-02 00:31:00,61.6,53.6,30.26,North,0,0.0,0.0,75,0.00,,,0.00,WUHU216HW,2013-08-02 07:31:00,
2013-08-02 00:36:00,61.6,53.6,30.25,North,0,0.0,0.0,75,0.00,,,0.00,WUHU216HW,2013-08-02 07:36:00,
2013-08-02 00:41:00,61.6,53.6,30.26,North,0,0.0,0.0,75,0.00,,,0.00,WUHU216HW,2013-08-02 07:41:00,
2013-08-02 00:46:00,61.4,53.0,30.26,North,0,0.0,0.0,74,0.00,,,0.00,WUHU216HW,2013-08-02 07:46:00,
2013-08-02 00:51:00,61.6,53.2,30.25,North,0,0.0,0.0,74,0.00,,,0.00,WUHU216HW,2013-08-02 07:51:00,
2013-08-02 00:56:00,61.6,53.6,30.25,North,0,0.0,0.0,75,0.00,,,0.00,WUHU216HW,2013-08-02 07:56:00,
2013-08-02 01:01:00,61.6,53.2,30.25,North,0,0.0,0.0,74,0.00,,,0.00,WUHU216HW,2013-08-02 08:01:00,
2013-08-02 01:06:00,61.7,53.4,30.25,North,0,0.0,0.0,74,0.00,,,0.00,WUHU216HW,2013-08-02 08:06:00,
2013-08-02 01:11:00,61.7,53.4,30.25,North,0,0.0,0.0,74,0.00,,,0.00,WUHU216HW,2013-08-02 08:11:00,
2013-08-02 01:16:00,61.7,53.4,30.25,North,0,0.0,0.0,74,0.00,,,0.00,WUHU216HW,2013-08-02 08:16:00,
2013-08-02 01:21:00,61.7,53.4,30.24,North,0,0.0,0.0,74,0.00,,,0.00,WUHU216HW,2013-08-02 08:21:00,
2013-08-02 01:26:00,61.7,53.0,30.24,North,0,0.0,0.0,73,0.00,,,0.00,WUHU216HW,2013-08-02 08:26:00,
2013-08-02 01:31:00,61.9,53.2,30.24,North,0,0.0,0.0,73,0.00,,,0.00,WUHU216HW,2013-08-02 08:31:00,
2013-08-02 01:36:00,61.9,53.2,30.24,North,0,0.0,0.0,73,0.00,,,0.00,WUHU216HW,2013-08-02 08:36:00,
2013-08-02 01:41:00,61.9,53.2,30.24,North,0,0.0,0.0,73,0.00,,,0.00,WUHU216HW,2013-08-02 08:41:00,
2013-08-02 01:46:00,61.9,53.2,30.24,North,0,0.0,0.0,73,0.00,,,0.00,WUHU216HW,2013-08-02 08:46:00,
2013-08-02 01:51:00,61.7,53.0,30.24,North,0,0.0,0.0,73,0.00,,,0.00,WUHU216HW,2013-08-02 08:51:00,
2013-08-02 01:56:00,61.7,53.0,30.24,North,0,0.0,0.0,73,0.00,,,0.00,WUHU216HW,2013-08-02 08:56:00,
2013-08-02 02:01:00,61.9,53.2,30.24,North,0,0.0,0.0,73,0.00,,,0.00,WUHU216HW,2013-08-02 09:01:00,
2013-08-02 02:06:00,61.9,53.2,30.24,North,0,0.0,0.0,73,0.00,,,0.00,WUHU216HW,2013-08-02 09:06:00,
2013-08-02 02:11:00,61.9,53.2,30.24,North,0,0.0,0.0,73,0.00,,,0.00,WUHU216HW,2013-08-02 09:11:00,
2013-08-02 02:16:00,62.1,53.4,30.24,North,0,0.0,0.0,73,0.00,,,0.00,WUHU216HW,2013-08-02 09:16:00,
2013-08-02 02:21:00,62.1,53.4,30.24,North,0,0.0,0.0,73,0.00,,,0.00,WUHU216HW,2013-08-02 09:21:00,
2013-08-02 02:26:00,62.1,53.0,30.24,North,0,0.0,0.0,72,0.00,,,0.00,WUHU216HW,2013-08-02 09:26:00,
2013-08-02 02:31:00,61.9,52.8,30.24,North,0,0.0,0.0,72,0.00,,,0.00,WUHU216HW,2013-08-02 09:31:00,
2013-08-02 02:36:00,61.7,52.7,30.24,North,0,0.0,0.0,72,0.00,,,0.00,WUHU216HW,2013-08-02 09:36:00,
2013-08-02 02:41:00,61.6,52.8,30.24,North,0,0.0,0.0,73,0.00,,,0.00,WUHU216HW,2013-08-02 09:41:00,
2013-08-02 02:46:00,61.6,52.8,30.24,North,0,0.0,0.0,73,0.00,,,0.00,WUHU216HW,2013-08-02 09:46:00,
2013-08-02 02:51:00,61.7,52.7,30.24,North,0,0.0,0.0,72,0.00,,,0.00,WUHU216HW,2013-08-02 09:51:00,
2013-08-02 02:56:00,61.7,52.7,30.24,North,0,0.0,0.0,72,0.00,,,0.00,WUHU216HW,2013-08-02 09:56:00,
2013-08-02 03:01:00,61.6,52.5,30.24,North,0,0.0,0.0,72,0.00,,,0.00,WUHU216HW,2013-08-02 10:01:00,
2013-08-02 03:06:00,61.6,52.5,30.24,North,0,0.0,0.0,72,0.00,,,0.00,WUHU216HW,2013-08-02 10:06:00,
2013-08-02 03:11:00,61.6,52.5,30.24,North,0,0.0,0.0,72,0.00,,,0.00,WUHU216HW,2013-08-02 10:11:00,
2013-08-02 03:16:00,61.6,52.5,30.24,North,0,0.0,0.0,72,0.00,,,0.00,WUHU216HW,2013-08-02 10:16:00,
2013-08-02 03:21:00,61.6,52.5,30.24,North,0,0.0,0.0,72,0.00,,,0.00,WUHU216HW,2013-08-02 10:21:00,
2013-08-02 03:26:00,61.6,52.5,30.24,North,0,0.0,0.0,72,0.00,,,0.00,WUHU216HW,2013-08-02 10:26:00,
2013-08-02 03:31:00,61.6,52.5,30.24,North,0,0.0,0.0,72,0.00,,,0.00,WUHU216HW,2013-08-02 10:31:00,
2013-08-02 03:36:00,61.6,52.5,30.24,North,0,0.0,0.0,72,0.00,,,0.00,WUHU216HW,2013-08-02 10:36:00,
2013-08-02 03:41:00,61.6,52.5,30.24,North,0,0.0,0.0,72,0.00,,,0.00,WUHU216HW,2013-08-02 10:41:00,
2013-08-02 03:46:00,61.4,52.3,30.24,North,0,0.0,0.0,72,0.00,,,0.00,WUHU216HW,2013-08-02 10:46:00,
2013-08-02 03:51:00,61.2,52.2,30.24,North,0,0.0,0.0,72,0.00,,,0.00,WUHU216HW,2013-08-02 10:51:00,
2013-08-02 03:56:00,61.0,52.0,30.24,North,0,0.0,0.0,72,0.00,,,0.00,WUHU216HW,2013-08-02 10:56:00,
2013-08-02 04:01:00,60.8,52.2,30.24,North,0,0.0,0.0,73,0.00,,,0.00,WUHU216HW,2013-08-02 11:01:00,
2013-08-02 04:06:00,60.8,52.2,30.24,North,0,0.0,0.0,73,0.00,,,0.00,WUHU216HW,2013-08-02 11:06:00,
2013-08-02 04:11:00,60.8,52.2,30.24,North,0,0.0,0.0,73,0.00,,,0.00,WUHU216HW,2013-08-02 11:11:00,
2013-08-02 04:16:00,60.7,52.0,30.24,North,0,0.0,0.0,73,0.00,,,0.00,WUHU216HW,2013-08-02 11:16:00,
2013-08-02 04:22:00,60.8,52.2,30.23,North,0,0.0,0.0,73,0.00,,,0.00,WUHU216HW,2013-08-02 11:22:00,
2013-08-02 04:27:00,60.8,52.2,30.23,North,0,0.0,0.0,73,0.00,,,0.00,WUHU216HW,2013-08-02 11:27:00,
2013-08-02 04:32:00,60.8,52.2,30.23,North,0,0.0,0.0,73,0.00,,,0.00,WUHU216HW,2013-08-02 11:32:00,
2013-08-02 04:37:00,60.8,52.2,30.24,North,0,0.0,0.0,73,0.00,,,0.00,WUHU216HW,2013-08-02 11:37:00,
2013-08-02 04:42:00,60.7,52.0,30.24,North,0,0.0,0.0,73,0.00,,,0.00,WUHU216HW,2013-08-02 11:42:00,
2013-08-02 04:47:00,60.8,52.2,30.24,North,0,0.0,0.0,73,0.00,,,0.00,WUHU216HW,2013-08-02 11:47:00,
2013-08-02 04:52:00,60.8,52.2,30.24,North,0,0.0,0.0,73,0.00,,,0.00,WUHU216HW,2013-08-02 11:52:00,
2013-08-02 04:57:00,60.8,52.2,30.24,North,0,0.0,0.0,73,0.00,,,0.00,WUHU216HW,2013-08-02 11:57:00,
2013-08-02 05:02:00,60.7,52.0,30.24,North,0,0.0,0.0,73,0.00,,,0.00,WUHU216HW,2013-08-02 12:02:00,
2013-08-02 05:07:00,60.5,51.8,30.24,North,0,0.0,0.0,73,0.00,,,0.00,WUHU216HW,2013-08-02 12:07:00,
2013-08-02 05:12:00,60.3,52.0,30.24,North,0,0.0,0.0,74,0.00,,,0.00,WUHU216HW,2013-08-02 12:12:00,
2013-08-02 05:17:00,60.1,51.8,30.24,North,0,0.0,0.0,74,0.00,,,0.00,WUHU216HW,2013-08-02 12:17:00,
2013-08-02 05:22:00,60.1,51.8,30.24,North,0,0.0,0.0,74,0.00,,,0.00,WUHU216HW,2013-08-02 12:22:00,
2013-08-02 05:27:00,60.1,51.8,30.24,North,0,0.0,0.0,74,0.00,,,0.00,WUHU216HW,2013-08-02 12:27:00,
2013-08-02 05:32:00,59.9,51.7,30.24,North,0,0.0,0.0,74,0.00,,,0.00,WUHU216HW,2013-08-02 12:32:00,
2013-08-02 05:37:00,59.9,51.7,30.24,North,0,0.0,0.0,74,0.00,,,0.00,WUHU216HW,2013-08-02 12:37:00,
2013-08-02 05:42:00,59.9,51.7,30.25,North,0,0.0,0.0,74,0.00,,,0.00,WUHU216HW,2013-08-02 12:42:00,
2013-08-02 05:47:00,59.9,52.0,30.24,North,0,0.0,0.0,75,0.00,,,0.00,WUHU216HW,2013-08-02 12:47:00,
2013-08-02 05:52:00,59.9,52.0,30.25,North,0,0.0,0.0,75,0.00,,,0.00,WUHU216HW,2013-08-02 12:52:00,
2013-08-02 05:57:00,60.1,52.2,30.25,North,0,0.0,0.0,75,0.00,,,0.00,WUHU216HW,2013-08-02 12:57:00,
2013-08-02 06:02:00,60.5,52.6,30.25,North,0,0.0,0.0,75,0.00,,,0.00,WUHU216HW,2013-08-02 13:02:00,
2013-08-02 06:07:00,60.7,52.7,30.25,North,0,0.0,0.0,75,0.00,,,0.00,WUHU216HW,2013-08-02 13:07:00,
2013-08-02 06:12:00,60.8,52.6,30.25,North,0,0.0,0.0,74,0.00,,,0.00,WUHU216HW,2013-08-02 13:12:00,
2013-08-02 06:17:00,61.0,52.8,30.25,North,0,0.0,0.0,74,0.00,,,0.00,WUHU216HW,2013-08-02 13:17:00,
2013-08-02 06:22:00,61.0,52.8,30.25,North,0,0.0,0.0,74,0.00,,,0.00,WUHU216HW,2013-08-02 13:22:00,
2013-08-02 06:27:00,61.4,53.0,30.25,North,0,0.0,0.0,74,0.00,,,0.00,WUHU216HW,2013-08-02 13:27:00,
2013-08-02 06:32:00,61.6,53.2,30.26,North,0,0.0,0.0,74,0.00,,,0.00,WUHU216HW,2013-08-02 13:32:00,
2013-08-02 06:37:00,61.7,53.4,30.26,North,0,0.0,0.0,74,0.00,,,0.00,WUHU216HW,2013-08-02 13:37:00,
2013-08-02 06:42:00,62.1,53.7,30.26,North,0,0.0,0.0,74,0.00,,,0.00,WUHU216HW,2013-08-02 13:42:00,
2013-08-02 06:47:00,62.3,53.5,30.26,North,0,0.0,0.0,73,0.00,,,0.00,WUHU216HW,2013-08-02 13:47:00,
2013-08-02 06:52:00,62.6,53.8,30.26,North,0,0.0,0.0,73,0.00,,,0.00,WUHU216HW,2013-08-02 13:52:00,
2013-08-02 06:57:00,63.2,54.7,30.26,North,0,0.0,0.0,74,0.00,,,0.00,WUHU216HW,2013-08-02 13:57:00,
2013-08-02 07:02:00,63.4,54.5,30.26,North,0,0.0,0.0,73,0.00,,,0.00,WUHU216HW,2013-08-02 14:02:00,
2013-08-02 07:07:00,63.7,54.9,30.26,North,0,0.0,0.0,73,0.00,,,0.00,WUHU216HW,2013-08-02 14:07:00,
2013-08-02 07:12:00,64.1,54.9,30.26,North,0,0.0,0.0,72,0.00,,,0.00,WUHU216HW,2013-08-02 14:12:00,
2013-08-02 07:17:00,64.8,55.3,30.26,North,0,0.0,0.0,71,0.00,,,0.00,WUHU216HW,2013-08-02 14:17:00,
2013-08-02 07:22:00,65.3,55.4,30.26,North,0,0.0,0.0,70,0.00,,,0.00,WUHU216HW,2013-08-02 14:22:00,
2013-08-02 07:27:00,65.9,55.8,30.26,North,0,0.0,0.0,70,0.00,,,0.00,WUHU216HW,2013-08-02 14:27:00,
2013-08-02 07:32:00,66.4,55.9,30.26,North,0,0.0,0.0,69,0.00,,,0.00,WUHU216HW,2013-08-02 14:32:00,
2013-08-02 07:37:00,66.8,55.9,30.26,North,0,0.0,0.0,68,0.00,,,0.00,WUHU216HW,2013-08-02 14:37:00,
2013-08-02 07:42:00,67.3,56.0,30.26,North,0,0.0,0.0,67,0.00,,,0.00,WUHU216HW,2013-08-02 14:42:00,
2013-08-02 07:47:00,67.9,56.1,30.26,North,0,0.0,0.0,66,0.00,,,0.00,WUHU216HW,2013-08-02 14:47:00,
2013-08-02 07:52:00,68.4,56.6,30.27,North,0,0.0,0.0,66,0.00,,,0.00,WUHU216HW,2013-08-02 14:52:00,
2013-08-02 07:57:00,68.9,56.3,30.27,North,0,0.0,0.0,64,0.00,,,0.00,WUHU216HW,2013-08-02 14:57:00,
2013-08-02 08:02:00,69.5,56.4,30.27,North,0,0.0,0.0,63,0.00,,,0.00,WUHU216HW,2013-08-02 15:02:00,
2013-08-02 08:07:00,70.0,56.4,30.27,North,0,0.0,0.0,62,0.00,,,0.00,WUHU216HW,2013-08-02 15:07:00,
2013-08-02 08:12:00,70.7,57.1,30.27,North,0,0.0,0.0,62,0.00,,,0.00,WUHU216HW,2013-08-02 15:12:00,
2013-08-02 08:17:00,71.3,57.2,30.28,North,0,0.0,0.0,61,0.00,,,0.00,WUHU216HW,2013-08-02 15:17:00,
2013-08-02 08:22:00,71.8,57.3,30.28,North,0,0.0,0.0,60,0.00,,,0.00,WUHU216HW,2013-08-02 15:22:00,
2013-08-02 08:27:00,72.0,57.4,30.28,North,0,0.0,0.0,60,0.00,,,0.00,WUHU216HW,2013-08-02 15:27:00,
2013-08-02 08:32:00,72.0,56.9,30.28,North,0,0.0,0.0,59,0.00,,,0.00,WUHU216HW,2013-08-02 15:32:00,
2013-08-02 08:36:00,72.2,57.1,30.28,North,0,0.0,0.0,59,0.00,,,0.00,WUHU216HW,2013-08-02 15:36:00,
2013-08-02 08:47:00,73.4,57.2,30.28,North,0,0.0,0.0,57,0.00,,,0.00,WUHU216HW,2013-08-02 15:47:00,
2013-08-02 08:52:00,74.2,56.9,30.28,North,0,0.0,0.0,55,0.00,,,0.00,WUHU216HW,2013-08-02 15:52:00,
2013-08-02 08:57:00,75.1,57.2,30.28,North,0,0.0,0.0,54,0.00,,,0.00,WUHU216HW,2013-08-02 15:57:00,
2013-08-02 09:02:00,75.8,57.4,30.28,North,0,0.0,0.0,53,0.00,,,0.00,WUHU216HW,2013-08-02 16:02:00,
2013-08-02 09:07:00,76.5,58.1,30.28,North,0,0.0,0.0,53,0.00,,,0.00,WUHU216HW,2013-08-02 16:07:00,
2013-08-02 09:12:00,77.2,57.7,30.28,North,0,0.0,0.0,51,0.00,,,0.00,WUHU216HW,2013-08-02 16:12:00,
2013-08-02 09:17:00,78.1,58.6,30.28,North,0,0.0,0.0,51,0.00,,,0.00,WUHU216HW,2013-08-02 16:17:00,
2013-08-02 09:22:00,78.7,57.9,30.28,North,0,0.0,0.0,49,0.00,,,0.00,WUHU216HW,2013-08-02 16:22:00,
2013-08-02 09:27:00,78.1,57.4,30.28,North,0,0.0,0.0,49,0.00,,,0.00,WUHU216HW,2013-08-02 16:27:00,
2013-08-02 09:32:00,77.9,57.9,30.28,North,0,0.0,0.0,50,0.00,,,0.00,WUHU216HW,2013-08-02 16:32:00,
2013-08-02 09:37:00,78.1,58.1,30.28,North,0,0.0,0.0,50,0.00,,,0.00,WUHU216HW,2013-08-02 16:37:00,
2013-08-02 09:42:00,78.3,58.2,30.29,North,0,0.0,0.0,50,0.00,,,0.00,WUHU216HW,2013-08-02 16:42:00,
2013-08-02 09:47:00,78.3,58.2,30.28,North,0,0.0,0.0,50,0.00,,,0.00,WUHU216HW,2013-08-02 16:47:00,
2013-08-02 09:52:00,78.5,58.3,30.28,North,0,0.0,0.0,50,0.00,,,0.00,WUHU216HW,2013-08-02 16:52:00,
2013-08-02 09:57:00,78.8,58.1,30.28,North,0,0.0,0.0,49,0.00,,,0.00,WUHU216HW,2013-08-02 16:57:00,
2013-08-02 10:02:00,79.6,58.7,30.28,North,0,0.0,0.0,49,0.00,,,0.00,WUHU216HW,2013-08-02 17:02:00,
2013-08-02 10:07:00,80.3,57.5,30.29,North,0,0.0,0.0,46,0.00,,,0.00,WUHU216HW,2013-08-02 17:07:00,
2013-08-02 10:12:00,80.8,58.1,30.29,North,0,0.0,0.0,46,0.00,,,0.00,WUHU216HW,2013-08-02 17:12:00,
2013-08-02 10:17:00,81.2,58.3,30.29,North,0,0.0,0.0,46,0.00,,,0.00,WUHU216HW,2013-08-02 17:17:00,
2013-08-02 10:22:00,80.5,57.7,30.29,North,0,0.0,0.0,46,0.00,,,0.00,WUHU216HW,2013-08-02 17:22:00,
2013-08-02 10:27:00,80.3,58.1,30.29,North,0,0.0,0.0,47,0.00,,,0.00,WUHU216HW,2013-08-02 17:27:00,
2013-08-02 10:32:00,80.6,58.5,30.29,North,0,0.0,0.0,47,0.00,,,0.00,WUHU216HW,2013-08-02 17:32:00,
2013-08-02 10:37:00,81.4,59.1,30.29,North,0,0.0,0.0,47,0.00,,,0.00,WUHU216HW,2013-08-02 17:37:00,
2013-08-02 10:42:00,81.7,57.6,30.28,North,0,0.0,0.0,44,0.00,,,0.00,WUHU216HW,2013-08-02 17:42:00,
2013-08-02 10:47:00,81.5,58.1,30.28,North,0,0.0,0.0,45,0.00,,,0.00,WUHU216HW,2013-08-02 17:47:00,
2013-08-02 10:52:00,81.5,58.7,30.28,North,0,0.0,0.0,46,0.00,,,0.00,WUHU216HW,2013-08-02 17:52:00,
2013-08-02 10:57:00,81.9,59.0,30.28,North,0,0.0,0.0,46,0.00,,,0.00,WUHU216HW,2013-08-02 17:57:00,
2013-08-02 11:02:00,81.9,58.4,30.28,North,0,0.0,0.0,45,0.00,,,0.00,WUHU216HW,2013-08-02 18:02:00,
2013-08-02 11:07:00,82.3,58.1,30.28,North,0,0.0,0.0,44,0.00,,,0.00,WUHU216HW,2013-08-02 18:07:00,
2013-08-02 11:12:00,82.4,58.9,30.27,North,0,0.0,0.0,45,0.00,,,0.00,WUHU216HW,2013-08-02 18:12:00,
2013-08-02 11:17:00,82.1,58.0,30.27,North,0,0.0,0.0,44,0.00,,,0.00,WUHU216HW,2013-08-02 18:17:00,
2013-08-02 11:22:00,82.3,58.1,30.27,North,0,0.0,0.0,44,0.00,,,0.00,WUHU216HW,2013-08-02 18:22:00,
2013-08-02 11:27:00,82.8,58.0,30.27,North,0,0.0,0.0,43,0.00,,,0.00,WUHU216HW,2013-08-02 18:27:00,
2013-08-02 11:32:00,82.6,57.2,30.27,North,0,0.0,0.0,42,0.00,,,0.00,WUHU216HW,2013-08-02 18:32:00,
2013-08-02 11:37:00,81.7,57.0,30.27,North,0,0.0,0.0,43,0.00,,,0.00,WUHU216HW,2013-08-02 18:37:00,
2013-08-02 11:42:00,82.1,56.7,30.27,North,0,0.0,0.0,42,0.00,,,0.00,WUHU216HW,2013-08-02 18:42:00,
2013-08-02 11:47:00,82.1,56.7,30.27,North,0,0.0,0.0,42,0.00,,,0.00,WUHU216HW,2013-08-02 18:47:00,
2013-08-02 11:52:00,82.1,57.3,30.27,North,0,0.0,0.0,43,0.00,,,0.00,WUHU216HW,2013-08-02 18:52:00,
2013-08-02 11:57:00,82.8,56.7,30.27,North,0,0.0,0.0,41,0.00,,,0.00,WUHU216HW,2013-08-02 18:57:00,
2013-08-02 12:02:00,83.2,57.1,30.27,North,0,0.0,0.0,41,0.00,,,0.00,WUHU216HW,2013-08-02 19:02:00,
2013-08-02 12:07:00,83.2,57.1,30.26,North,0,0.0,0.0,41,0.00,,,0.00,WUHU216HW,2013-08-02 19:07:00,
2013-08-02 12:12:00,83.3,57.9,30.26,North,0,0.0,0.0,42,0.00,,,0.00,WUHU216HW,2013-08-02 19:12:00,
2013-08-02 12:17:00,84.1,57.9,30.26,North,0,0.0,0.0,41,0.00,,,0.00,WUHU216HW,2013-08-02 19:17:00,
2013-08-02 12:22:00,84.6,56.2,30.26,North,0,0.0,0.0,38,0.00,,,0.00,WUHU216HW,2013-08-02 19:22:00,
2013-08-02 12:27:00,85.0,55.7,30.26,North,0,0.0,0.0,37,0.00,,,0.00,WUHU216HW,2013-08-02 19:27:00,
2013-08-02 12:32:00,85.1,56.6,30.26,North,0,0.0,0.0,38,0.00,,,0.00,WUHU216HW,2013-08-02 19:32:00,
2013-08-02 12:37:00,85.0,56.5,30.26,North,0,0.0,0.0,38,0.00,,,0.00,WUHU216HW,2013-08-02 19:37:00,
2013-08-02 12:42:00,85.1,55.9,30.25,North,0,0.0,0.0,37,0.00,,,0.00,WUHU216HW,2013-08-02 19:42:00,
2013-08-02 12:47:00,85.0,54.1,30.25,North,0,0.0,0.0,35,0.00,,,0.00,WUHU216HW,2013-08-02 19:47:00,
2013-08-02 12:52:00,84.8,56.4,30.25,North,0,0.0,0.0,38,0.00,,,0.00,WUHU216HW,2013-08-02 19:52:00,
2013-08-02 12:57:00,85.3,56.8,30.25,North,0,0.0,0.0,38,0.00,,,0.00,WUHU216HW,2013-08-02 19:57:00,
2013-08-02 13:02:00,85.7,54.7,30.25,North,0,0.0,0.0,35,0.00,,,0.00,WUHU216HW,2013-08-02 20:02:00,
2013-08-02 13:07:00,85.5,54.6,30.25,North,0,0.0,0.0,35,0.00,,,0.00,WUHU216HW,2013-08-02 20:07:00,
2013-08-02 13:12:00,85.3,54.5,30.25,North,0,0.0,0.0,35,0.00,,,0.00,WUHU216HW,2013-08-02 20:12:00,
2013-08-02 13:17:00,84.6,55.4,30.24,North,0,0.0,0.0,37,0.00,,,0.00,WUHU216HW,2013-08-02 20:17:00,
2013-08-02 13:22:00,84.8,56.4,30.24,North,0,0.0,0.0,38,0.00,,,0.00,WUHU216HW,2013-08-02 20:22:00,
2013-08-02 13:27:00,85.0,54.1,30.24,North,0,0.0,0.0,35,0.00,,,0.00,WUHU216HW,2013-08-02 20:27:00,
2013-08-02 13:32:00,85.1,55.9,30.24,North,0,0.0,0.0,37,0.00,,,0.00,WUHU216HW,2013-08-02 20:32:00,
2013-08-02 13:37:00,85.3,56.0,30.24,North,0,0.0,0.0,37,0.00,,,0.00,WUHU216HW,2013-08-02 20:37:00,
2013-08-02 13:42:00,85.7,56.3,30.24,North,0,0.0,0.0,37,0.00,,,0.00,WUHU216HW,2013-08-02 20:42:00,
2013-08-02 13:47:00,85.7,54.7,30.24,North,0,0.0,0.0,35,0.00,,,0.00,WUHU216HW,2013-08-02 20:47:00,
2013-08-02 13:52:00,85.9,54.9,30.24,North,0,0.0,0.0,35,0.00,,,0.00,WUHU216HW,2013-08-02 20:52:00,
2013-08-02 13:57:00,85.9,54.9,30.24,North,0,0.0,0.0,35,0.00,,,0.00,WUHU216HW,2013-08-02 20:57:00,
2013-08-02 14:02:00,86.0,55.1,30.24,North,0,0.0,0.0,35,0.00,,,0.00,WUHU216HW,2013-08-02 21:02:00,
2013-08-02 14:07:00,86.2,55.3,30.24,North,0,0.0,0.0,35,0.00,,,0.00,WUHU216HW,2013-08-02 21:07:00,
2013-08-02 14:12:00,86.4,53.8,30.24,North,0,0.0,0.0,33,0.00,,,0.00,WUHU216HW,2013-08-02 21:12:00,
2013-08-02 14:17:00,86.4,54.6,30.24,North,0,0.0,0.0,34,0.00,,,0.00,WUHU216HW,2013-08-02 21:17:00,
2013-08-02 14:22:00,85.1,57.4,30.25,North,0,0.0,0.0,39,0.00,,,0.00,WUHU216HW,2013-08-02 21:22:00,
2013-08-02 14:27:00,83.3,57.3,30.25,North,0,0.0,0.0,41,0.00,,,0.00,WUHU216HW,2013-08-02 21:27:00,
2013-08-02 14:32:00,82.3,56.9,30.25,North,0,0.0,0.0,42,0.00,,,0.00,WUHU216HW,2013-08-02 21:32:00,
2013-08-02 14:37:00,81.2,57.2,30.24,North,0,0.0,0.0,44,0.00,,,0.00,WUHU216HW,2013-08-02 21:37:00,
2013-08-02 14:42:00,80.3,56.4,30.24,North,0,0.0,0.0,44,0.00,,,0.00,WUHU216HW,2013-08-02 21:42:00,
2013-08-02 14:47:00,79.9,57.3,30.24,North,0,0.0,0.0,46,0.00,,,0.00,WUHU216HW,2013-08-02 21:47:00,
2013-08-02 14:52:00,79.6,56.3,30.24,North,0,0.0,0.0,45,0.00,,,0.00,WUHU216HW,2013-08-02 21:52:00,
2013-08-02 14:57:00,79.6,56.3,30.24,North,0,0.0,0.0,45,0.00,,,0.00,WUHU216HW,2013-08-02 21:57:00,
2013-08-02 15:02:00,79.6,56.3,30.24,North,0,0.0,0.0,45,0.00,,,0.00,WUHU216HW,2013-08-02 22:02:00,
2013-08-02 15:07:00,79.6,55.6,30.24,North,0,0.0,0.0,44,0.00,,,0.00,WUHU216HW,2013-08-02 22:07:00,
2013-08-02 15:12:00,79.0,55.2,30.24,North,0,0.0,0.0,44,0.00,,,0.00,WUHU216HW,2013-08-02 22:12:00,
2013-08-02 15:17:00,78.5,55.3,30.24,North,0,0.0,0.0,45,0.00,,,0.00,WUHU216HW,2013-08-02 22:17:00,
2013-08-02 15:22:00,78.5,55.3,30.23,North,0,0.0,0.0,45,0.00,,,0.00,WUHU216HW,2013-08-02 22:22:00,
2013-08-02 15:27:00,79.0,55.8,30.24,North,0,0.0,0.0,45,0.00,,,0.00,WUHU216HW,2013-08-02 22:27:00,
2013-08-02 15:32:00,79.6,55.6,30.24,North,0,0.0,0.0,44,0.00,,,0.00,WUHU216HW,2013-08-02 22:32:00,
2013-08-02 15:37:00,79.7,55.8,30.24,North,0,0.0,0.0,44,0.00,,,0.00,WUHU216HW,2013-08-02 22:37:00,
2013-08-02 15:42:00,80.1,56.2,30.24,North,0,0.0,0.0,44,0.00,,,0.00,WUHU216HW,2013-08-02 22:42:00,
2013-08-02 15:47:00,80.3,56.4,30.24,North,0,0.0,0.0,44,0.00,,,0.00,WUHU216HW,2013-08-02 22:47:00,
2013-08-02 15:52:00,80.3,56.4,30.24,North,0,0.0,0.0,44,0.00,,,0.00,WUHU216HW,2013-08-02 22:52:00,
2013-08-02 15:57:00,79.9,56.6,30.24,North,0,0.0,0.0,45,0.00,,,0.00,WUHU216HW,2013-08-02 22:57:00,
2013-08-02 16:02:00,79.6,56.9,30.24,North,0,0.0,0.0,46,0.00,,,0.00,WUHU216HW,2013-08-02 23:02:00,
2013-08-02 16:07:00,79.0,57.0,30.24,North,0,0.0,0.0,47,0.00,,,0.00,WUHU216HW,2013-08-02 23:07:00,
2013-08-02 16:12:00,78.5,58.9,30.24,North,0,0.0,0.0,51,0.00,,,0.00,WUHU216HW,2013-08-02 23:12:00,
2013-08-02 16:17:00,76.7,61.3,30.24,North,0,0.0,0.0,59,0.01,,,0.01,WUHU216HW,2013-08-02 23:17:00,
2013-08-02 16:22:00,75.2,60.9,30.24,North,0,0.0,0.0,61,0.01,,,0.01,WUHU216HW,2013-08-02 23:22:00,
2013-08-02 16:27:00,74.3,61.4,30.24,North,0,0.0,0.0,64,0.01,,,0.01,WUHU216HW,2013-08-02 23:27:00,
2013-08-02 16:32:00,73.6,60.2,30.24,North,0,0.0,0.0,63,0.01,,,0.01,WUHU216HW,2013-08-02 23:32:00,
2013-08-02 16:37:00,73.1,59.2,30.24,North,0,0.0,0.0,62,0.01,,,0.01,WUHU216HW,2013-08-02 23:37:00,
2013-08-02 16:42:00,72.7,59.4,30.25,North,0,0.0,0.0,63,0.01,,,0.01,WUHU216HW,2013-08-02 23:42:00,
2013-08-02 16:47:00,72.4,59.5,30.25,North,0,0.0,0.0,64,0.01,,,0.01,WUHU216HW,2013-08-02 23:47:00,
2013-08-02 16:52:00,72.2,59.8,30.24,North,0,0.0,0.0,65,0.01,,,0.01,WUHU216HW,2013-08-02 23:52:00,
2013-08-02 16:57:00,72.0,60.0,30.25,North,0,0.0,0.0,66,0.01,,,0.01,WUHU216HW,2013-08-02 23:57:00,
2013-08-02 17:02:00,72.0,60.4,30.26,North,0,0.0,0.0,67,0.01,,,0.01,WUHU216HW,2013-08-03 00:02:00,
2013-08-02 17:07:00,71.8,59.9,30.26,North,0,0.0,0.0,66,0.01,,,0.01,WUHU216HW,2013-08-03 00:07:00,
2013-08-02 17:12:00,71.6,58.0,30.26,North,0,0.0,0.0,62,0.01,,,0.01,WUHU216HW,2013-08-03 00:12:00,
2013-08-02 17:17:00,71.1,57.0,30.26,North,0,0.0,0.0,61,0.00,,,0.01,WUHU216HW,2013-08-03 00:17:00,
2013-08-02 17:22:00,70.2,55.3,30.26,North,0,0.0,0.0,59,0.00,,,0.01,WUHU216HW,2013-08-03 00:22:00,
2013-08-02 17:27:00,69.3,55.4,30.27,North,0,0.0,0.0,61,0.00,,,0.01,WUHU216HW,2013-08-03 00:27:00,
2013-08-02 17:32:00,68.6,53.7,30.27,North,0,0.0,0.0,59,0.00,,,0.01,WUHU216HW,2013-08-03 00:32:00,
2013-08-02 17:37:00,68.0,53.2,30.27,North,0,0.0,0.0,59,0.00,,,0.01,WUHU216HW,2013-08-03 00:37:00,
2013-08-02 17:42:00,67.1,52.8,30.27,North,0,0.0,0.0,60,0.00,,,0.01,WUHU216HW,2013-08-03 00:42:00,
2013-08-02 17:48:00,66.2,53.6,30.27,North,0,0.0,0.0,64,0.00,,,0.01,WUHU216HW,2013-08-03 00:48:00,
2013-08-02 17:53:00,65.7,54.5,30.27,North,0,0.0,0.0,67,0.00,,,0.01,WUHU216HW,2013-08-03 00:53:00,
2013-08-02 17:58:00,65.3,54.9,30.26,North,0,0.0,0.0,69,0.00,,,0.01,WUHU216HW,2013-08-03 00:58:00,
2013-08-02 18:03:00,65.3,54.9,30.27,North,0,0.0,0.0,69,0.00,,,0.01,WUHU216HW,2013-08-03 01:03:00,
2013-08-02 18:08:00,65.5,55.1,30.27,North,0,0.0,0.0,69,0.00,,,0.01,WUHU216HW,2013-08-03 01:08:00,
2013-08-02 18:13:00,65.7,55.3,30.28,North,0,0.0,0.0,69,0.00,,,0.01,WUHU216HW,2013-08-03 01:13:00,
2013-08-02 18:18:00,65.9,55.5,30.28,North,0,0.0,0.0,69,0.00,,,0.01,WUHU216HW,2013-08-03 01:18:00,
2013-08-02 18:23:00,65.9,55.5,30.28,North,0,0.0,0.0,69,0.00,,,0.01,WUHU216HW,2013-08-03 01:23:00,
2013-08-02 18:27:00,66.1,55.2,30.27,North,0,0.0,0.0,68,0.00,,,0.01,WUHU216HW,2013-08-03 01:27:00,
2013-08-02 18:32:00,66.2,55.4,30.28,North,0,0.0,0.0,68,0.00,,,0.01,WUHU216HW,2013-08-03 01:32:00,
2013-08-02 18:37:00,66.2,54.9,30.27,North,0,0.0,0.0,67,0.00,,,0.01,WUHU216HW,2013-08-03 01:37:00,
2013-08-02 18:42:00,66.2,54.6,30.27,North,0,0.0,0.0,66,0.00,,,0.01,WUHU216HW,2013-08-03 01:42:00,
2013-08-02 18:47:00,66.2,54.6,30.27,North,0,0.0,0.0,66,0.00,,,0.01,WUHU216HW,2013-08-03 01:47:00,
2013-08-02 18:52:00,66.2,54.6,30.27,North,0,0.0,0.0,66,0.00,,,0.01,WUHU216HW,2013-08-03 01:52:00,
2013-08-02 18:57:00,66.2,54.6,30.27,North,0,0.0,0.0,66,0.00,,,0.01,WUHU216HW,2013-08-03 01:57:00,
2013-08-02 19:02:00,66.2,54.6,30.27,North,0,0.0,0.0,66,0.00,,,0.01,WUHU216HW,2013-08-03 02:02:00,
2013-08-02 19:07:00,66.2,54.6,30.27,North,0,0.0,0.0,66,0.00,,,0.01,WUHU216HW,2013-08-03 02:07:00,
2013-08-02 19:12:00,66.1,54.4,30.27,North,0,0.0,0.0,66,0.00,,,0.01,WUHU216HW,2013-08-03 02:12:00,
2013-08-02 19:17:00,66.2,54.6,30.27,North,0,0.0,0.0,66,0.00,,,0.01,WUHU216HW,2013-08-03 02:17:00,
2013-08-02 19:22:00,66.1,54.4,30.27,North,0,0.0,0.0,66,0.00,,,0.01,WUHU216HW,2013-08-03 02:22:00,
2013-08-02 19:27:00,65.9,54.2,30.27,North,0,0.0,0.0,66,0.00,,,0.01,WUHU216HW,2013-08-03 02:27:00,
2013-08-02 19:32:00,65.7,54.0,30.26,North,0,0.0,0.0,66,0.00,,,0.01,WUHU216HW,2013-08-03 02:32:00,
2013-08-02 19:37:00,65.5,53.4,30.27,North,0,0.0,0.0,65,0.00,,,0.01,WUHU216HW,2013-08-03 02:37:00,
2013-08-02 19:42:00,65.3,53.3,30.26,North,0,0.0,0.0,65,0.00,,,0.01,WUHU216HW,2013-08-03 02:42:00,
2013-08-02 19:47:00,65.2,53.5,30.26,North,0,0.0,0.0,66,0.00,,,0.01,WUHU216HW,2013-08-03 02:47:00,
2013-08-02 19:52:00,65.2,53.9,30.26,North,0,0.0,0.0,67,0.00,,,0.01,WUHU216HW,2013-08-03 02:52:00,
2013-08-02 19:58:00,65.2,53.5,30.26,North,0,0.0,0.0,66,0.00,,,0.01,WUHU216HW,2013-08-03 02:58:00,
2013-08-02 20:02:00,65.2,53.5,30.26,North,0,0.0,0.0,66,0.00,,,0.01,WUHU216HW,2013-08-03 03:02:00,
2013-08-02 20:08:00,64.8,52.8,30.26,North,0,0.0,0.0,65,0.00,,,0.01,WUHU216HW,2013-08-03 03:08:00,
2013-08-02 20:13:00,64.8,52.8,30.26,North,0,0.0,0.0,65,0.00,,,0.01,WUHU216HW,2013-08-03 03:13:00,
2013-08-02 20:18:00,64.6,53.0,30.26,North,0,0.0,0.0,66,0.00,,,0.01,WUHU216HW,2013-08-03 03:18:00,
2013-08-02 20:23:00,64.6,52.6,30.26,North,0,0.0,0.0,65,0.00,,,0.01,WUHU216HW,2013-08-03 03:23:00,
2013-08-02 20:27:00,64.4,52.4,30.26,North,0,0.0,0.0,65,0.00,,,0.01,WUHU216HW,2013-08-03 03:27:00,
2013-08-02 20:33:00,64.3,52.2,30.26,North,0,0.0,0.0,65,0.00,,,0.01,WUHU216HW,2013-08-03 03:33:00,
2013-08-02 20:38:00,64.1,52.0,30.26,North,0,0.0,0.0,65,0.00,,,0.01,WUHU216HW,2013-08-03 03:38:00,
2013-08-02 20:43:00,64.1,52.0,30.26,North,0,0.0,0.0,65,0.00,,,0.01,WUHU216HW,2013-08-03 03:43:00,
2013-08-02 20:47:00,64.1,52.0,30.27,North,0,0.0,0.0,65,0.00,,,0.01,WUHU216HW,2013-08-03 03:47:00,
2013-08-02 20:53:00,63.9,51.8,30.27,North,0,0.0,0.0,65,0.00,,,0.01,WUHU216HW,2013-08-03 03:53:00,
2013-08-02 20:58:00,63.9,51.8,30.27,North,0,0.0,0.0,65,0.00,,,0.01,WUHU216HW,2013-08-03 03:58:00,
2013-08-02 21:01:00,63.7,51.7,30.26,North,0,0.0,0.0,65,0.00,,,0.01,WUHU216HW,2013-08-03 04:01:00,
2013-08-02 21:06:00,63.7,51.7,30.27,North,0,0.0,0.0,65,0.00,,,0.01,WUHU216HW,2013-08-03 04:06:00,
2013-08-02 21:12:00,63.9,51.8,30.27,North,0,0.0,0.0,65,0.00,,,0.01,WUHU216HW,2013-08-03 04:12:00,
2013-08-02 21:17:00,63.9,51.8,30.27,North,0,0.0,0.0,65,0.00,,,0.01,WUHU216HW,2013-08-03 04:17:00,
2013-08-02 21:22:00,63.9,51.5,30.28,North,0,0.0,0.0,64,0.00,,,0.01,WUHU216HW,2013-08-03 04:22:00,
2013-08-02 21:27:00,63.7,51.3,30.27,North,0,0.0,0.0,64,0.00,,,0.01,WUHU216HW,2013-08-03 04:27:00,
2013-08-02 21:32:00,63.5,51.1,30.28,North,0,0.0,0.0,64,0.00,,,0.01,WUHU216HW,2013-08-03 04:32:00,
2013-08-02 21:37:00,63.5,51.6,30.28,North,0,0.0,0.0,65,0.00,,,0.01,WUHU216HW,2013-08-03 04:37:00,
2013-08-02 21:42:00,63.5,51.6,30.28,North,0,0.0,0.0,65,0.00,,,0.01,WUHU216HW,2013-08-03 04:42:00,
2013-08-02 21:47:00,63.4,51.4,30.28,North,0,0.0,0.0,65,0.00,,,0.01,WUHU216HW,2013-08-03 04:47:00,
2013-08-02 21:52:00,63.4,51.4,30.28,North,0,0.0,0.0,65,0.00,,,0.01,WUHU216HW,2013-08-03 04:52:00,
2013-08-02 21:57:00,63.4,51.8,30.28,North,0,0.0,0.0,66,0.00,,,0.01,WUHU216HW,2013-08-03 04:57:00,
2013-08-02 22:02:00,63.0,51.4,30.28,North,0,0.0,0.0,66,0.00,,,0.01,WUHU216HW,2013-08-03 05:02:00,
2013-08-02 22:07:00,62.8,51.7,30.28,North,0,0.0,0.0,67,0.00,,,0.01,WUHU216HW,2013-08-03 05:07:00,
2013-08-02 22:12:00,62.6,51.9,30.28,North,0,0.0,0.0,68,0.00,,,0.01,WUHU216HW,2013-08-03 05:12:00,
2013-08-02 22:17:00,62.5,51.8,30.28,North,0,0.0,0.0,68,0.00,,,0.01,WUHU216HW,2013-08-03 05:17:00,
2013-08-02 22:22:00,62.3,52.0,30.29,North,0,0.0,0.0,69,0.00,,,0.01,WUHU216HW,2013-08-03 05:22:00,
2013-08-02 22:27:00,62.1,51.4,30.29,North,0,0.0,0.0,68,0.00,,,0.01,WUHU216HW,2013-08-03 05:27:00,
2013-08-02 22:32:00,62.1,51.4,30.29,North,0,0.0,0.0,68,0.00,,,0.01,WUHU216HW,2013-08-03 05:32:00,
2013-08-02 22:37:00,61.9,51.7,30.29,North,0,0.0,0.0,69,0.00,,,0.01,WUHU216HW,2013-08-03 05:37:00,
2013-08-02 22:42:00,61.7,51.5,30.29,North,0,0.0,0.0,69,0.00,,,0.01,WUHU216HW,2013-08-03 05:42:00,
2013-08-02 22:47:00,61.6,51.4,30.29,North,0,0.0,0.0,69,0.00,,,0.01,WUHU216HW,2013-08-03 05:47:00,
2013-08-02 22:52:00,61.2,51.0,30.29,North,0,0.0,0.0,69,0.00,,,0.01,WUHU216HW,2013-08-03 05:52:00,
2013-08-02 22:57:00,60.8,50.7,30.29,North,0,0.0,0.0,69,0.00,,,0.01,WUHU216HW,2013-08-03 05:57:00,
2013-08-02 23:02:00,60.5,50.3,30.29,North,0,0.0,0.0,69,0.00,,,0.01,WUHU216HW,2013-08-03 06:02:00,
2013-08-02 23:07:00,60.3,50.6,30.29,North,0,0.0,0.0,70,0.00,,,0.01,WUHU216HW,2013-08-03 06:07:00,
2013-08-02 23:12:00,60.3,50.6,30.29,North,0,0.0,0.0,70,0.00,,,0.01,WUHU216HW,2013-08-03 06:12:00,
2013-08-02 23:17:00,60.1,50.4,30.29,North,0,0.0,0.0,70,0.00,,,0.01,WUHU216HW,2013-08-03 06:17:00,
2013-08-02 23:22:00,59.6,50.2,30.28,North,0,0.0,0.0,71,0.00,,,0.01,WUHU216HW,2013-08-03 06:22:00,
2013-08-02 23:27:00,59.4,50.4,30.29,North,0,0.0,0.0,72,0.00,,,0.01,WUHU216HW,2013-08-03 06:27:00,
2013-08-02 23:32:00,59.0,50.0,30.28,North,0,0.0,0.0,72,0.00,,,0.01,WUHU216HW,2013-08-03 06:32:00,
2013-08-02 23:37:00,59.0,50.4,30.28,North,0,0.0,0.0,73,0.00,,,0.01,WUHU216HW,2013-08-03 06:37:00,
2013-08-02 23:42:00,59.0,50.4,30.28,North,0,0.0,0.0,73,0.00,,,0.01,WUHU216HW,2013-08-03 06:42:00,
2013-08-02 23:47:00,59.0,50.4,30.28,North,0,0.0,0.0,73,0.00,,,0.01,WUHU216HW,2013-08-03 06:47:00,
2013-08-02 23:52:00,58.7,50.0,30.28,North,0,0.0,0.0,73,0.00,,,0.01,WUHU216HW,2013-08-03 06:52:00,
2013-08-02 23:57:00,58.3,49.7,30.28,North,0,0.0,0.0,73,0.00,,,0.01,WUHU216HW,2013-08-03 06:57:00,